Data for 12/23/2013

Time Sea-Level Adjusted Pressure Absolute Pressure Temperature Relative Humidity Dew Point   
(mb) (inHg) (mb) (inHg) (C) (F) (%) (C) (F)
00:05 1022 30.18 851 25.13 -3.9 25 85 -6.1 21
00:10 1022 30.18 851 25.13 -3.9 24.9 84 -6.3 20.7
00:15 1022 30.18 851 25.13 -3.9 25 84 -6.2 20.8
00:20 1022 30.18 851 25.13 -3.9 25.1 83 -6.3 20.6
00:25 1022 30.18 851 25.13 -3.8 25.1 83 -6.3 20.6
00:30 1022 30.18 851 25.13 -3.6 25.4 81 -6.4 20.5
00:35 1022 30.18 851 25.13 -3.6 25.6 81 -6.4 20.4
00:40 1022 30.18 851 25.13 -3.4 25.8 81 -6.3 20.7
00:45 1022 30.18 852 25.16 -3.3 26.1 81 -6.1 21
00:50 1022 30.18 852 25.16 -3 26.5 79 -6.1 21
00:55 1022 30.18 852 25.16 -2.8 27 77 -6.2 20.8
01:00 1022 30.18 851 25.13 -2.5 27.4 76 -6.2 20.8
01:05 1022 30.18 851 25.13 -2.3 27.9 74 -6.2 20.8
01:10 1022 30.18 851 25.13 -2.2 28 74 -6.2 20.9
01:15 1022 30.18 851 25.13 -2.4 27.7 76 -6.1 21
01:20 1022 30.18 851 25.13 -2.4 27.7 74 -6.4 20.4
01:25 1022 30.18 851 25.13 -2.4 27.7 75 -6.3 20.7
01:30 1022 30.18 851 25.13 -2.6 27.4 75 -6.4 20.4
01:35 1022 30.18 851 25.13 -2.6 27.3 75 -6.5 20.4
01:40 1022 30.18 851 25.13 -2.6 27.3 75 -6.5 20.3
01:45 1022 30.18 851 25.13 -2.6 27.3 75 -6.5 20.2
01:50 1022 30.18 851 25.13 -2.5 27.4 75 -6.5 20.4
01:55 1021 30.15 851 25.13 -2.7 27.2 76 -6.3 20.6
02:00 1021 30.15 851 25.13 -2.9 26.8 77 -6.4 20.5
02:05 1021 30.15 851 25.13 -2.7 27.1 76 -6.4 20.6
02:10 1021 30.15 851 25.13 -2.8 26.9 78 -6.2 20.8
02:15 1021 30.15 851 25.13 -2.8 27 77 -6.3 20.6
02:20 1021 30.15 850 25.1 -2.4 27.7 73 -6.5 20.3
02:25 1021 30.15 850 25.1 -1.8 28.7 71 -6.3 20.6
02:30 1021 30.15 850 25.1 -1.8 28.7 72 -6.2 20.9
02:35 1021 30.15 850 25.1 -1.8 28.7 73 -6.1 21.1
02:40 1021 30.15 850 25.1 -2.3 27.9 74 -6.3 20.7
02:45 1021 30.15 850 25.1 -2.2 28 72 -6.7 20
02:50 1021 30.15 850 25.1 -1.9 28.6 70 -6.7 20
02:55 1021 30.15 850 25.1 -1.8 28.8 70 -6.5 20.3
03:00 1021 30.15 850 25.1 -1.7 29 69 -6.6 20.1
03:05 1021 30.15 850 25.1 -1.6 29.1 69 -6.5 20.3
03:10 1021 30.15 850 25.1 -1.5 29.2 68 -6.6 20.1
03:15 1021 30.15 850 25.1 -1.4 29.5 68 -6.5 20.2
03:20 1021 30.15 851 25.13 -1.1 29.9 66 -6.7 20
03:25 1021 30.15 851 25.13 -0.9 30.3 65 -6.7 19.9
03:30 1021 30.15 851 25.13 -0.7 30.8 64 -6.7 20
03:35 1021 30.15 851 25.13 -0.5 31 64 -6.4 20.4
03:40 1021 30.15 850 25.1 -0.5 31.1 65 -6.3 20.6
03:45 1021 30.15 851 25.13 -0.6 31 66 -6.1 21
03:50 1021 30.15 851 25.13 -0.8 30.6 69 -5.8 21.5
03:55 1022 30.18 851 25.13 -1 30.1 69 -6 21.1
04:00 1022 30.18 851 25.13 -1.1 30 69 -6 21.2
04:05 1022 30.18 851 25.13 -1.2 29.9 72 -5.6 21.9
04:10 1022 30.18 851 25.13 -1.5 29.3 75 -5.4 22.4
04:15 1022 30.18 851 25.13 -2 28.4 79 -5.2 22.7
04:20 1022 30.18 851 25.13 -2.7 27.2 82 -5.3 22.4
04:25 1022 30.18 851 25.13 -3.1 26.4 84 -5.5 22.2
04:30 1022 30.18 851 25.13 -3.4 26 83 -5.8 21.5
04:35 1022 30.18 851 25.13 -3.7 25.3 85 -5.8 21.5
04:40 1022 30.18 851 25.13 -3.7 25.3 85 -5.8 21.5
04:45 1022 30.18 851 25.13 -3.7 25.3 86 -5.7 21.7
04:50 1022 30.18 851 25.13 -3.7 25.3 87 -5.6 21.9
04:55 1022 30.18 851 25.13 -3.8 25.2 89 -5.4 22.3
05:00 1021 30.15 851 25.13 -3.8 25.1 89 -5.4 22.3
05:05 1021 30.15 851 25.13 -4 24.8 89 -5.5 22
05:10 1021 30.15 850 25.1 -4.1 24.6 90 -5.6 21.9
05:15 1021 30.15 850 25.1 -4.2 24.5 90 -5.6 21.9
05:20 1021 30.15 850 25.1 -4.1 24.7 91 -5.4 22.4
05:25 1021 30.15 850 25.1 -3.7 25.4 89 -5.2 22.6
05:30 1021 30.15 850 25.1 -3.5 25.6 90 -5 23
05:35 1021 30.15 850 25.1 -3.4 25.9 90 -4.8 23.3
05:40 1021 30.15 850 25.1 -3.3 26.1 90 -4.8 23.4
05:45 1021 30.15 850 25.1 -3.3 26.1 90 -4.6 23.7
05:50 1021 30.15 850 25.1 -2.8 27 89 -4.3 24.2
05:55 1021 30.15 850 25.1 -2.4 27.8 87 -4.2 24.4
06:00 1021 30.15 850 25.1 -2.2 28 86 -4.2 24.4
06:05 1021 30.15 850 25.1 -2.7 27.2 87 -4.5 23.9
06:10 1021 30.15 850 25.1 -3.3 26.1 89 -4.8 23.4
06:15 1021 30.15 850 25.1 -3.3 26.1 90 -4.8 23.4
06:20 1021 30.15 850 25.1 -3.2 26.3 90 -4.6 23.7
06:25 1021 30.15 850 25.1 -2.9 26.8 89 -4.4 24.1
06:30 1021 30.15 850 25.1 -2.7 27.1 89 -4.3 24.2
06:35 1021 30.15 850 25.1 -2.6 27.3 88 -4.2 24.4
06:40 1021 30.15 850 25.1 -2.5 27.5 88 -4.2 24.4
06:45 1021 30.15 850 25.1 -2.4 27.7 88 -4.2 24.5
06:50 1021 30.15 850 25.1 -2.3 27.9 87 -4.1 24.6
06:55 1021 30.15 850 25.1 -2.3 27.8 88 -4.1 24.7
07:00 1021 30.15 850 25.1 -2.3 27.8 88 -4.1 24.7
07:05 1021 30.15 850 25.1 -2.3 27.8 88 -4.1 24.7
07:10 1021 30.15 850 25.1 -2.2 28.1 87 -4 24.8
07:15 1021 30.15 850 25.1 -1.9 28.5 86 -4 24.8
07:20 1021 30.15 850 25.1 -1.9 28.6 86 -3.9 24.9
07:25 1021 30.15 850 25.1 -1.8 28.7 86 -3.9 24.9
07:30 1021 30.15 850 25.1 -1.7 28.9 85 -3.9 24.9
07:35 1021 30.15 850 25.1 -1.7 28.9 85 -4 24.9
07:40 1021 30.15 850 25.1 -1.6 29 85 -3.8 25.2
07:45 1021 30.15 850 25.1 -1.6 29.2 86 -3.6 25.6
07:50 1021 30.15 850 25.1 -1.6 29.1 88 -3.4 25.9
07:55 1021 30.15 850 25.1 -1.6 29.1 88 -3.3 26.1
08:00 1021 30.15 850 25.1 -1.6 29.2 89 -3.1 26.4
08:05 1021 30.15 850 25.1 -1.8 28.8 91 -3.1 26.5
08:10 1021 30.15 850 25.1 -1.9 28.7 92 -3 26.5
08:15 1021 30.15 850 25.1 -2 28.5 93 -3 26.6
08:20 1021 30.15 850 25.1 -2 28.4 93 -3 26.6
08:25 1021 30.15 850 25.1 -2.2 28.1 93 -3.1 26.5
08:30 1021 30.15 850 25.1 -2.3 27.9 94 -3.1 26.4
08:35 1021 30.15 850 25.1 -2.2 28 94 -3 26.5
08:40 1021 30.15 850 25.1 -2.2 28.1 95 -2.9 26.7
08:45 1021 30.15 850 25.1 -2.1 28.3 95 -2.8 27
08:50 1021 30.15 850 25.1 -2 28.5 95 -2.7 27.1
08:55 1021 30.15 850 25.1 -1.9 28.6 94 -2.7 27.2
09:00 1021 30.15 850 25.1 -1.9 28.7 94 -2.6 27.3
09:05 1021 30.15 850 25.1 -1.7 28.9 94 -2.5 27.5
09:10 1021 30.15 850 25.1 -1.5 29.2 94 -2.4 27.7
09:15 1021 30.15 850 25.1 -1.5 29.4 94 -2.3 27.8
09:20 1021 30.15 850 25.1 -1.5 29.4 93 -2.4 27.7
09:25 1020 30.12 850 25.1 -1.5 29.3 94 -2.4 27.7
09:30 1020 30.12 849 25.07 -1.4 29.4 94 -2.4 27.8
09:35 1020 30.12 849 25.07 -1.3 29.7 93 -2.2 28.1
09:40 1020 30.12 849 25.07 -1.2 29.9 93 -2.2 28
09:45 1020 30.12 849 25.07 -1.3 29.7 93 -2.3 27.9
09:50 1020 30.12 849 25.07 -1.2 29.9 93 -2.2 28.1
09:55 1020 30.12 849 25.07 -1 30.2 92 -2.1 28.2
10:00 1020 30.12 849 25.07 -0.8 30.6 91 -2 28.4
10:05 1020 30.12 849 25.07 -0.5 31.1 91 -1.8 28.7
10:10 1020 30.12 849 25.07 -0.2 31.7 89 -1.8 28.7
10:15 1020 30.12 849 25.07 -0.1 31.9 88 -1.8 28.8
10:20 1020 30.12 849 25.07 0.2 32.3 86 -1.9 28.6
10:25 1020 30.12 849 25.07 0.3 32.6 86 -1.8 28.8
10:30 1020 30.12 849 25.07 0.5 32.9 82 -2.2 28
10:35 1020 30.12 849 25.07 1.1 33.9 81 -1.9 28.6
10:40 1020 30.12 849 25.07 1.1 34 83 -1.5 29.3
10:45 1020 30.12 849 25.07 1 33.7 83 -1.6 29.2
10:50 1020 30.12 849 25.07 0.9 33.6 83 -1.7 29
10:55 1020 30.12 850 25.1 1 33.8 82 -1.8 28.8
11:00 1020 30.12 850 25.1 1.2 34.1 81 -1.7 28.9
11:05 1020 30.12 850 25.1 1.2 34.2 81 -1.7 29
11:10 1020 30.12 850 25.1 1.3 34.4 80 -1.8 28.7
11:15 1020 30.12 850 25.1 1.5 34.7 78 -1.9 28.6
11:20 1020 30.12 850 25.1 1.6 34.9 79 -1.6 29.1
11:25 1020 30.12 850 25.1 1.6 34.8 80 -1.6 29.1
11:30 1020 30.12 849 25.07 1.5 34.6 81 -1.5 29.3
11:35 1020 30.12 849 25.07 1.3 34.4 82 -1.4 29.5
11:40 1020 30.12 849 25.07 0.8 33.5 85 -1.4 29.4
11:45 1020 30.12 849 25.07 0.7 33.3 84 -1.7 28.9
11:50 1020 30.12 849 25.07 1 33.8 81 -1.9 28.6
11:55 1020 30.12 849 25.07 1.2 34.2 79 -2 28.5
12:00 1020 30.12 849 25.07 1.5 34.7 79 -1.7 28.9
12:05 1020 30.12 849 25.07 1.7 35.1 74 -2.4 27.8
12:10 1020 30.12 849 25.07 2.1 35.7 72 -2.5 27.6
12:15 1020 30.12 849 25.07 2.4 36.4 72 -2 28.4
12:20 1019 30.09 849 25.07 2.8 37.1 72 -1.7 28.9
12:25 1019 30.09 849 25.07 2.9 37.2 70 -2.1 28.2
12:30 1019 30.09 849 25.07 3.3 37.9 67 -2.3 27.8
12:35 1019 30.09 849 25.07 3.6 38.5 65 -2.3 27.8
12:40 1019 30.09 849 25.07 3.7 38.6 66 -2.2 28.1
12:45 1019 30.09 848 25.04 3.8 38.8 65 -2.3 27.9
12:50 1019 30.09 848 25.04 3.9 39 64 -2.3 27.8
12:55 1019 30.09 848 25.04 4.1 39.3 63 -2.4 27.7
13:00 1019 30.09 848 25.04 4.2 39.6 61 -2.5 27.5
13:05 1019 30.09 848 25.04 4.3 39.8 62 -2.4 27.6
13:10 1019 30.09 848 25.04 4.4 40 61 -2.4 27.7
13:15 1019 30.09 848 25.04 4.4 40 61 -2.4 27.7
13:20 1019 30.09 848 25.04 4.7 40.4 60 -2.5 27.4
13:25 1019 30.09 848 25.04 4.8 40.7 59 -2.4 27.6
13:30 1019 30.09 848 25.04 5 41.1 59 -2.3 27.9
13:35 1019 30.09 848 25.04 5.1 41.1 58 -2.4 27.6
13:40 1019 30.09 848 25.04 5.1 41.1 60 -2.1 28.3
13:45 1019 30.09 848 25.04 5.1 41.1 59 -2.2 28.1
13:50 1019 30.09 848 25.04 5.1 41.3 60 -2 28.5
13:55 1019 30.09 848 25.04 5.1 41.2 60 -2.1 28.3
14:00 1019 30.09 848 25.04 5.2 41.4 59 -2.1 28.3
14:05 1019 30.09 848 25.04 5.3 41.5 58 -2.4 27.7
14:10 1019 30.09 848 25.04 5.4 41.7 58 -2.1 28.2
14:15 1018 30.06 848 25.04 5.3 41.5 58 -2.2 28
14:20 1018 30.06 848 25.04 5.3 41.5 59 -2.2 28.1
14:25 1018 30.06 847 25.01 5.3 41.5 59 -2.1 28.1
14:30 1018 30.06 847 25.01 5.4 41.6 58 -2.3 27.9
14:35 1018 30.06 847 25.01 5.5 41.9 58 -2.1 28.2
14:40 1018 30.06 847 25.01 5.5 41.8 58 -2.1 28.2
14:45 1018 30.06 847 25.01 5.2 41.4 61 -1.7 28.9
14:50 1018 30.06 847 25.01 5.3 41.5 59 -2 28.4
14:55 1018 30.06 847 25.01 5.2 41.4 61 -1.6 29
15:00 1018 30.06 847 25.01 5 41 61 -1.9 28.6
15:05 1018 30.06 847 25.01 5.1 41.2 60 -2 28.5
15:10 1018 30.06 847 25.01 5.2 41.4 60 -1.9 28.7
15:15 1018 30.06 847 25.01 5.4 41.7 58 -2.3 27.9
15:20 1018 30.06 847 25.01 5.6 42 58 -2.1 28.2
15:25 1018 30.06 847 25.01 5.7 42.3 58 -1.9 28.6
15:30 1018 30.06 847 25.01 5.7 42.3 59 -1.7 28.9
15:35 1018 30.06 847 25.01 5.6 42.1 59 -1.6 29
15:40 1018 30.06 847 25.01 5.6 42 58 -1.9 28.5
15:45 1018 30.06 847 25.01 5.4 41.7 60 -1.8 28.7
15:50 1018 30.06 847 25.01 5.2 41.4 62 -1.4 29.4
15:55 1018 30.06 847 25.01 5.2 41.3 63 -1.4 29.5
16:00 1018 30.06 847 25.01 5.2 41.4 61 -1.7 29
16:05 1018 30.06 847 25.01 5.2 41.4 60 -1.8 28.8
16:10 1018 30.06 847 25.01 5.3 41.5 59 -2.2 28.1
16:15 1018 30.06 847 25.01 5.6 42 58 -2.1 28.2
16:20 1018 30.06 847 25.01 5.8 42.4 58 -1.9 28.5
16:25 1018 30.06 847 25.01 5.7 42.3 59 -1.8 28.8
16:30 1018 30.06 847 25.01 5.7 42.2 58 -1.9 28.6
16:35 1018 30.06 847 25.01 5.7 42.2 58 -2 28.4
16:40 1018 30.06 847 25.01 5.8 42.5 58 -1.8 28.8
16:45 1018 30.06 847 25.01 5.4 41.7 69 0.2 32.3
16:50 1018 30.06 847 25.01 4.5 40.2 70 -0.4 31.3
16:55 1018 30.06 847 25.01 4 39.2 71 -0.7 30.7
17:00 1018 30.06 847 25.01 3.6 38.5 74 -0.5 31
17:05 1018 30.06 847 25.01 3.4 38.2 74 -0.7 30.7
17:10 1018 30.06 847 25.01 3.3 37.9 75 -0.7 30.8
17:15 1018 30.06 847 25.01 3.3 37.9 76 -0.6 30.9
17:20 1018 30.06 847 25.01 3.3 37.9 75 -0.8 30.6
17:25 1018 30.06 847 25.01 3.5 38.2 73 -1 30.2
17:30 1018 30.06 847 25.01 3.5 38.3 72 -1 30.2
17:35 1018 30.06 847 25.01 3.6 38.5 73 -0.9 30.4
17:40 1018 30.06 847 25.01 3.5 38.2 73 -1 30.3
17:45 1018 30.06 847 25.01 3.5 38.3 72 -1.1 30
17:50 1018 30.06 847 25.01 3.5 38.2 73 -0.8 30.5
17:55 1017 30.03 847 25.01 3.2 37.8 75 -0.8 30.5
18:00 1017 30.03 847 25.01 3 37.3 78 -0.6 31
18:05 1017 30.03 847 25.01 2.7 36.9 77 -0.9 30.3
18:10 1017 30.03 846 24.98 2.8 37.1 77 -0.8 30.6
18:15 1017 30.03 846 24.98 2.9 37.3 73 -1.4 29.5
18:20 1017 30.03 846 24.98 3.3 37.9 73 -1.1 30.1
18:25 1017 30.03 846 24.98 3.2 37.8 74 -1 30.2
18:30 1017 30.03 846 24.98 3 37.5 78 -0.4 31.3
18:35 1017 30.03 846 24.98 2.7 36.8 80 -0.5 31.1
18:40 1016 30 846 24.98 2.5 36.5 84 0.1 32.1
18:45 1016 30 846 24.98 2.9 37.2 81 -0 32
18:50 1016 30 845 24.95 2.9 37.3 77 -0.7 30.7
18:55 1016 30 845 24.95 4.2 39.6 63 -2.2 28.1
19:00 1016 30 845 24.95 5.3 41.5 61 -1.7 28.9
19:05 1016 30 845 24.95 5.7 42.2 57 -2.2 28
19:10 1016 30 845 24.95 6.3 43.3 54 -2.3 27.9
19:15 1016 30 845 24.95 6.6 43.9 54 -2 28.5
19:20 1016 30 845 24.95 6.6 44 54 -2 28.5
19:25 1016 30 845 24.95 6.6 43.9 54 -1.9 28.6
19:30 1016 30 845 24.95 6.5 43.7 55 -2 28.4
19:35 1016 30 845 24.95 6.5 43.7 55 -1.9 28.6
19:40 1016 30 845 24.95 6.3 43.4 55 -1.9 28.5
19:45 1015 29.97 845 24.95 6.3 43.3 56 -2 28.5
19:50 1015 29.97 844 24.92 6.3 43.3 54 -2.3 27.9
19:55 1015 29.97 844 24.92 6.5 43.7 54 -2.2 28.1
20:00 1015 29.97 844 24.92 6.5 43.6 54 -2.3 27.9
20:05 1015 29.97 845 24.95 6.6 43.9 53 -2.3 27.9
20:10 1015 29.97 845 24.95 6.4 43.6 54 -2.3 27.9
20:15 1015 29.97 844 24.92 6.3 43.4 54 -2.3 27.9
20:20 1015 29.97 844 24.92 6.4 43.5 53 -2.6 27.3
20:25 1015 29.97 844 24.92 6.4 43.5 54 -2.2 28
20:30 1015 29.97 844 24.92 6.2 43.1 54 -2.4 27.6
20:35 1015 29.97 844 24.92 6.1 42.9 54 -2.5 27.5
20:40 1014 29.94 844 24.92 6.3 43.3 53 -2.7 27.1
20:45 1014 29.94 843 24.89 6.7 44.1 50 -3 26.6
20:50 1014 29.94 843 24.89 6.9 44.5 50 -2.7 27.1
20:55 1014 29.94 843 24.89 6.9 44.4 49 -2.9 26.7
21:00 1014 29.94 843 24.89 6.9 44.5 49 -3.1 26.4
21:05 1013 29.91 843 24.89 7 44.6 48 -3.1 26.3
21:10 1013 29.91 843 24.89 7.1 44.7 48 -3.1 26.4
21:15 1013 29.91 842 24.86 7 44.7 48 -3.2 26.3
21:20 1013 29.91 842 24.86 6.9 44.4 48 -3.2 26.2
21:25 1013 29.91 842 24.86 6.9 44.4 48 -3.3 26
21:30 1013 29.91 842 24.86 7 44.6 48 -3.3 26
21:35 1013 29.91 842 24.86 7 44.5 49 -3 26.6
21:40 1013 29.91 842 24.86 6.7 44.1 48 -3.6 25.6
21:45 1013 29.91 842 24.86 6.9 44.4 48 -3.3 26.1
21:50 1013 29.91 842 24.86 7 44.6 47 -3.5 25.8
21:55 1013 29.91 842 24.86 7.1 44.8 48 -3.2 26.2
22:00 1013 29.91 842 24.86 7 44.6 49 -3.1 26.4
22:05 1013 29.91 842 24.86 6.7 44.1 49 -3.2 26.3
22:10 1013 29.91 842 24.86 6.6 43.8 50 -3 26.6
22:15 1012 29.88 842 24.86 6.5 43.7 50 -3.3 26.1
22:20 1012 29.88 842 24.86 6.6 43.9 49 -3.3 26.1
22:25 1012 29.88 842 24.86 6.6 44 49 -3.4 25.9
22:30 1012 29.88 842 24.86 6.6 43.9 49 -3.2 26.2
22:35 1012 29.88 842 24.86 6.6 43.9 48 -3.5 25.7
22:40 1012 29.88 842 24.86 6.7 44.1 48 -3.6 25.6
22:45 1013 29.91 842 24.86 6.8 44.2 48 -3.3 26.1
22:50 1013 29.91 842 24.86 7.1 44.7 47 -3.4 25.9
22:55 1013 29.91 842 24.86 6.9 44.4 51 -2.4 27.6
23:00 1013 29.91 842 24.86 6.4 43.5 52 -2.7 27.2
23:05 1013 29.91 842 24.86 6.8 44.3 49 -3 26.6
23:10 1013 29.91 843 24.89 6.6 43.9 52 -2.5 27.5
23:15 1014 29.94 843 24.89 4.6 40.3 78 1 33.9
23:20 1014 29.94 844 24.92 2 35.6 86 -0 32
23:25 1015 29.97 844 24.92 1.5 34.6 89 -0.2 31.7
23:30 1015 29.97 844 24.92 1.3 34.3 90 -0.3 31.5
23:35 1015 29.97 844 24.92 1.1 34 90 -0.4 31.3
23:40 1015 29.97 844 24.92 1.1 34 88 -0.7 30.8
23:45 1015 29.97 844 24.92 1.3 34.4 85 -0.9 30.4
23:50 1015 29.97 844 24.92 1.8 35.2 78 -1.6 29.1
23:55 1015 29.97 844 24.92 2.3 36.1 76 -1.5 29.3
24:00 1014 29.94 844 24.92 2.6 36.7 72 -1.8 28.7